Strona główna
METAR-TAF:

METAR-TAF

Lotnisko :

Shawbury, Anglia

Szerokość geograficzna: 52-48N, Długość geograficzna: 002-40W, wysokość: 76 m

Aktualna obserwacja pogody

Raport powstał 1 godzina i 8 minut temu, godzina 17:50 UTC
Wiatr 5 kt od wschód
Temperatura 23°C
Wilgotność 50%
Ciśnienie 1020 hPa
Widzialność 10 km lub więcej

METAR: EGOS 151750Z AUTO 09005KT 9999 OVC047/// 23/12 Q1020

czas: 19:58 (18:58 UTC)

Prognoza

Raport powstał 5 godziny i 30 minut temu, godzina 13:28 UTC
Prognoza ważna od 15 godzina 15 UTC do 15 godzina 18 UTC
Wiatr 5 kt z kierunków zmiennych
Widzialność 10 km lub więcej
Rozproszone chmury na wysokości 4500 ft

TAF: EGOS 151328Z 1515/1518 VRB05KT 9999 SCT045

Obserwacja i prognoza pogody dla ponad 4000 lotnisk (raport METAR i TAF).

Dostępne stacje oznaczono żółtymi i czerwonymi punktami na mapie.

Najedź kursorem aby zobaczyć nazwę stacji.

Kliknij aby zobaczyć obserwacje i prognozy pogody.

Aby zmienić mapę: kliknij na zielony przycisk z czarnym krzyżykiem, aby powiększyć; na zielony przycisk z myślnikiem, aby pomniejszyć; na zielone strzałki, aby przejść do map sąsiednich.


METAR-TAF: